sensor_id;sensor_type;location;lat;lon;timestamp;P1;durP1;ratioP1;P2;durP2;ratioP2
31584;SDS011;18191;51.288;12.390;2023-06-10T00:04:39;14.52;;;3.60;;
31584;SDS011;18191;51.288;12.390;2023-06-10T00:09:30;10.00;;;3.80;;
31584;SDS011;18191;51.288;12.390;2023-06-10T00:14:20;15.25;;;3.97;;
31584;SDS011;18191;51.288;12.390;2023-06-10T00:19:11;8.40;;;3.75;;
31584;SDS011;18191;51.288;12.390;2023-06-10T00:24:04;12.80;;;3.72;;
31584;SDS011;18191;51.288;12.390;2023-06-10T00:28:55;9.45;;;3.60;;
31584;SDS011;18191;51.288;12.390;2023-06-10T00:33:45;13.38;;;3.35;;
31584;SDS011;18191;51.288;12.390;2023-06-10T00:38:35;14.18;;;3.53;;
31584;SDS011;18191;51.288;12.390;2023-06-10T00:43:26;10.75;;;3.72;;
31584;SDS011;18191;51.288;12.390;2023-06-10T00:48:16;12.18;;;3.47;;
31584;SDS011;18191;51.288;12.390;2023-06-10T00:53:07;18.63;;;4.63;;
31584;SDS011;18191;51.288;12.390;2023-06-10T00:57:58;10.63;;;3.53;;
31584;SDS011;18191;51.288;12.390;2023-06-10T01:02:49;9.68;;;3.25;;
31584;SDS011;18191;51.288;12.390;2023-06-10T01:12:56;17.58;;;3.88;;
31584;SDS011;18191;51.288;12.390;2023-06-10T01:17:59;14.20;;;4.28;;
31584;SDS011;18191;51.288;12.390;2023-06-10T01:22:51;15.13;;;3.53;;
31584;SDS011;18191;51.288;12.390;2023-06-10T01:27:44;9.43;;;3.15;;
31584;SDS011;18191;51.288;12.390;2023-06-10T01:32:50;9.75;;;4.32;;
31584;SDS011;18191;51.288;12.390;2023-06-10T01:37:41;14.57;;;3.35;;
31584;SDS011;18191;51.288;12.390;2023-06-10T01:42:35;11.40;;;3.83;;
31584;SDS011;18191;51.288;12.390;2023-06-10T01:47:25;17.73;;;4.20;;
31584;SDS011;18191;51.288;12.390;2023-06-10T01:52:16;13.48;;;4.10;;
31584;SDS011;18191;51.288;12.390;2023-06-10T02:01:56;10.52;;;3.40;;
31584;SDS011;18191;51.288;12.390;2023-06-10T02:06:47;12.43;;;3.90;;
31584;SDS011;18191;51.288;12.390;2023-06-10T02:16:28;8.90;;;4.05;;
31584;SDS011;18191;51.288;12.390;2023-06-10T02:21:18;15.43;;;4.00;;
31584;SDS011;18191;51.288;12.390;2023-06-10T02:26:08;15.57;;;5.10;;
31584;SDS011;18191;51.288;12.390;2023-06-10T02:30:59;14.48;;;4.60;;
31584;SDS011;18191;51.288;12.390;2023-06-10T02:35:50;13.60;;;5.38;;
31584;SDS011;18191;51.288;12.390;2023-06-10T02:40:40;25.25;;;6.32;;
31584;SDS011;18191;51.288;12.390;2023-06-10T02:45:30;16.67;;;5.20;;
31584;SDS011;18191;51.288;12.390;2023-06-10T02:55:11;17.55;;;5.85;;
31584;SDS011;18191;51.288;12.390;2023-06-10T03:04:59;14.32;;;5.93;;
31584;SDS011;18191;51.288;12.390;2023-06-10T03:14:40;15.00;;;6.60;;
31584;SDS011;18191;51.288;12.390;2023-06-10T03:24:23;12.05;;;5.18;;
31584;SDS011;18191;51.288;12.390;2023-06-10T03:29:13;14.67;;;4.70;;
31584;SDS011;18191;51.288;12.390;2023-06-10T03:34:03;18.95;;;5.38;;
31584;SDS011;18191;51.288;12.390;2023-06-10T03:43:46;24.77;;;6.28;;
31584;SDS011;18191;51.288;12.390;2023-06-10T03:53:28;27.48;;;4.95;;
31584;SDS011;18191;51.288;12.390;2023-06-10T04:03:09;15.80;;;5.78;;
31584;SDS011;18191;51.288;12.390;2023-06-10T04:08:04;20.10;;;5.80;;
31584;SDS011;18191;51.288;12.390;2023-06-10T04:17:45;14.25;;;5.38;;
31584;SDS011;18191;51.288;12.390;2023-06-10T04:27:26;20.10;;;5.47;;
31584;SDS011;18191;51.288;12.390;2023-06-10T04:37:07;14.80;;;5.20;;
31584;SDS011;18191;51.288;12.390;2023-06-10T04:41:57;17.23;;;6.00;;
31584;SDS011;18191;51.288;12.390;2023-06-10T04:46:47;17.80;;;5.60;;
31584;SDS011;18191;51.288;12.390;2023-06-10T04:51:38;13.40;;;5.43;;
31584;SDS011;18191;51.288;12.390;2023-06-10T04:56:28;12.98;;;5.70;;
31584;SDS011;18191;51.288;12.390;2023-06-10T05:06:09;17.58;;;5.82;;
31584;SDS011;18191;51.288;12.390;2023-06-10T05:10:59;23.55;;;5.75;;
31584;SDS011;18191;51.288;12.390;2023-06-10T05:15:50;13.13;;;5.00;;
31584;SDS011;18191;51.288;12.390;2023-06-10T05:20:40;16.50;;;5.47;;
31584;SDS011;18191;51.288;12.390;2023-06-10T05:25:30;15.07;;;5.53;;
31584;SDS011;18191;51.288;12.390;2023-06-10T05:30:22;12.73;;;5.30;;
31584;SDS011;18191;51.288;12.390;2023-06-10T05:35:14;24.27;;;5.78;;
31584;SDS011;18191;51.288;12.390;2023-06-10T05:40:04;17.48;;;5.93;;
31584;SDS011;18191;51.288;12.390;2023-06-10T05:44:56;19.27;;;5.65;;
31584;SDS011;18191;51.288;12.390;2023-06-10T05:49:46;19.40;;;5.90;;
31584;SDS011;18191;51.288;12.390;2023-06-10T05:54:38;20.65;;;6.43;;
31584;SDS011;18191;51.288;12.390;2023-06-10T05:59:28;12.50;;;5.77;;
31584;SDS011;18191;51.288;12.390;2023-06-10T06:04:18;16.40;;;6.22;;
31584;SDS011;18191;51.288;12.390;2023-06-10T06:09:09;21.75;;;5.63;;
31584;SDS011;18191;51.288;12.390;2023-06-10T06:13:59;12.98;;;5.05;;
31584;SDS011;18191;51.288;12.390;2023-06-10T06:18:50;13.05;;;5.88;;
31584;SDS011;18191;51.288;12.390;2023-06-10T06:23:40;15.80;;;5.25;;
31584;SDS011;18191;51.288;12.390;2023-06-10T06:28:30;9.95;;;5.70;;
31584;SDS011;18191;51.288;12.390;2023-06-10T06:33:21;12.75;;;5.22;;
31584;SDS011;18191;51.288;12.390;2023-06-10T06:38:11;17.65;;;6.38;;
31584;SDS011;18191;51.288;12.390;2023-06-10T06:43:02;15.98;;;5.95;;
31584;SDS011;18191;51.288;12.390;2023-06-10T06:47:52;16.00;;;6.07;;
31584;SDS011;18191;51.288;12.390;2023-06-10T06:52:42;22.20;;;6.80;;
31584;SDS011;18191;51.288;12.390;2023-06-10T06:57:34;20.13;;;6.03;;
31584;SDS011;18191;51.288;12.390;2023-06-10T07:02:24;20.47;;;7.23;;
31584;SDS011;18191;51.288;12.390;2023-06-10T07:07:14;17.90;;;6.77;;
31584;SDS011;18191;51.288;12.390;2023-06-10T07:12:05;21.52;;;7.32;;
31584;SDS011;18191;51.288;12.390;2023-06-10T07:16:56;35.70;;;7.63;;
31584;SDS011;18191;51.288;12.390;2023-06-10T07:21:46;17.48;;;7.25;;
31584;SDS011;18191;51.288;12.390;2023-06-10T07:26:37;19.52;;;7.93;;
31584;SDS011;18191;51.288;12.390;2023-06-10T07:31:28;15.57;;;7.23;;
31584;SDS011;18191;51.288;12.390;2023-06-10T07:36:18;16.65;;;6.97;;
31584;SDS011;18191;51.288;12.390;2023-06-10T07:41:09;16.02;;;6.47;;
31584;SDS011;18191;51.288;12.390;2023-06-10T07:45:59;16.88;;;7.40;;
31584;SDS011;18191;51.288;12.390;2023-06-10T07:50:50;17.38;;;8.20;;
31584;SDS011;18191;51.288;12.390;2023-06-10T07:55:40;14.40;;;6.82;;
31584;SDS011;18191;51.288;12.390;2023-06-10T08:00:30;16.63;;;7.82;;
31584;SDS011;18191;51.288;12.390;2023-06-10T08:05:20;15.05;;;7.30;;
31584;SDS011;18191;51.288;12.390;2023-06-10T08:10:11;16.50;;;7.20;;
31584;SDS011;18191;51.288;12.390;2023-06-10T08:15:01;15.02;;;7.20;;
31584;SDS011;18191;51.288;12.390;2023-06-10T08:19:54;14.27;;;6.60;;
31584;SDS011;18191;51.288;12.390;2023-06-10T08:24:44;20.67;;;7.43;;
31584;SDS011;18191;51.288;12.390;2023-06-10T08:29:34;24.02;;;8.23;;
31584;SDS011;18191;51.288;12.390;2023-06-10T08:34:25;16.20;;;7.03;;
31584;SDS011;18191;51.288;12.390;2023-06-10T08:39:15;21.00;;;9.20;;
31584;SDS011;18191;51.288;12.390;2023-06-10T08:44:13;17.55;;;7.25;;
31584;SDS011;18191;51.288;12.390;2023-06-10T08:49:10;15.05;;;7.53;;
31584;SDS011;18191;51.288;12.390;2023-06-10T08:54:11;14.90;;;6.78;;
31584;SDS011;18191;51.288;12.390;2023-06-10T08:59:15;16.67;;;7.22;;
31584;SDS011;18191;51.288;12.390;2023-06-10T09:04:06;14.02;;;6.78;;
31584;SDS011;18191;51.288;12.390;2023-06-10T09:08:57;16.38;;;6.40;;
31584;SDS011;18191;51.288;12.390;2023-06-10T09:13:47;20.40;;;7.60;;
31584;SDS011;18191;51.288;12.390;2023-06-10T09:23:28;15.15;;;7.78;;
31584;SDS011;18191;51.288;12.390;2023-06-10T09:28:19;16.23;;;6.95;;
31584;SDS011;18191;51.288;12.390;2023-06-10T09:33:11;17.93;;;6.93;;
31584;SDS011;18191;51.288;12.390;2023-06-10T09:38:03;17.83;;;7.30;;
31584;SDS011;18191;51.288;12.390;2023-06-10T09:47:51;24.40;;;7.65;;
31584;SDS011;18191;51.288;12.390;2023-06-10T09:52:43;13.32;;;7.13;;
31584;SDS011;18191;51.288;12.390;2023-06-10T09:57:35;17.67;;;7.43;;
31584;SDS011;18191;51.288;12.390;2023-06-10T10:02:26;13.37;;;7.60;;
31584;SDS011;18191;51.288;12.390;2023-06-10T10:07:16;16.05;;;7.75;;
31584;SDS011;18191;51.288;12.390;2023-06-10T10:12:11;15.77;;;8.07;;
31584;SDS011;18191;51.288;12.390;2023-06-10T10:17:04;17.83;;;8.80;;
31584;SDS011;18191;51.288;12.390;2023-06-10T10:22:01;16.08;;;7.85;;
31584;SDS011;18191;51.288;12.390;2023-06-10T10:26:59;10.43;;;7.30;;
31584;SDS011;18191;51.288;12.390;2023-06-10T10:31:52;18.30;;;7.55;;
31584;SDS011;18191;51.288;12.390;2023-06-10T10:36:46;19.17;;;8.25;;
31584;SDS011;18191;51.288;12.390;2023-06-10T10:41:37;12.30;;;7.43;;
31584;SDS011;18191;51.288;12.390;2023-06-10T10:46:29;13.07;;;6.97;;
31584;SDS011;18191;51.288;12.390;2023-06-10T10:51:20;13.13;;;7.53;;
31584;SDS011;18191;51.288;12.390;2023-06-10T10:56:15;15.27;;;7.00;;
31584;SDS011;18191;51.288;12.390;2023-06-10T11:01:12;11.63;;;6.13;;
31584;SDS011;18191;51.288;12.390;2023-06-10T11:06:04;12.43;;;6.22;;
31584;SDS011;18191;51.288;12.390;2023-06-10T11:11:17;12.15;;;5.78;;
31584;SDS011;18191;51.288;12.390;2023-06-10T11:16:08;10.85;;;5.32;;
31584;SDS011;18191;51.288;12.390;2023-06-10T11:21:01;9.43;;;6.13;;
31584;SDS011;18191;51.288;12.390;2023-06-10T11:26:11;12.80;;;6.45;;
31584;SDS011;18191;51.288;12.390;2023-06-10T11:31:20;10.77;;;5.95;;
31584;SDS011;18191;51.288;12.390;2023-06-10T11:36:15;9.38;;;5.68;;
31584;SDS011;18191;51.288;12.390;2023-06-10T11:41:07;12.88;;;5.80;;
31584;SDS011;18191;51.288;12.390;2023-06-10T11:45:57;11.50;;;5.28;;
31584;SDS011;18191;51.288;12.390;2023-06-10T11:50:47;10.35;;;6.05;;
31584;SDS011;18191;51.288;12.390;2023-06-10T11:55:47;14.70;;;5.63;;
31584;SDS011;18191;51.288;12.390;2023-06-10T12:00:48;9.82;;;6.45;;
31584;SDS011;18191;51.288;12.390;2023-06-10T12:05:39;10.07;;;5.60;;
31584;SDS011;18191;51.288;12.390;2023-06-10T12:10:30;11.90;;;6.13;;
31584;SDS011;18191;51.288;12.390;2023-06-10T12:15:23;13.55;;;5.97;;
31584;SDS011;18191;51.288;12.390;2023-06-10T12:20:26;10.10;;;5.50;;
31584;SDS011;18191;51.288;12.390;2023-06-10T12:25:23;20.63;;;5.80;;
31584;SDS011;18191;51.288;12.390;2023-06-10T12:30:18;53.38;;;8.35;;
31584;SDS011;18191;51.288;12.390;2023-06-10T12:35:11;10.35;;;6.28;;
31584;SDS011;18191;51.288;12.390;2023-06-10T12:40:03;13.95;;;6.70;;
31584;SDS011;18191;51.288;12.390;2023-06-10T12:44:54;19.77;;;6.85;;
31584;SDS011;18191;51.288;12.390;2023-06-10T12:49:45;13.10;;;7.43;;
31584;SDS011;18191;51.288;12.390;2023-06-10T12:54:35;12.85;;;6.75;;
31584;SDS011;18191;51.288;12.390;2023-06-10T12:59:26;12.18;;;6.65;;
31584;SDS011;18191;51.288;12.390;2023-06-10T13:04:17;8.77;;;5.32;;
31584;SDS011;18191;51.288;12.390;2023-06-10T13:09:08;10.88;;;5.72;;
31584;SDS011;18191;51.288;12.390;2023-06-10T13:13:58;13.48;;;5.63;;
31584;SDS011;18191;51.288;12.390;2023-06-10T13:18:49;13.80;;;5.80;;
31584;SDS011;18191;51.288;12.390;2023-06-10T13:23:39;12.25;;;4.32;;
31584;SDS011;18191;51.288;12.390;2023-06-10T13:28:30;10.35;;;4.13;;
31584;SDS011;18191;51.288;12.390;2023-06-10T13:33:20;6.50;;;3.72;;
31584;SDS011;18191;51.288;12.390;2023-06-10T13:38:11;5.78;;;3.72;;
31584;SDS011;18191;51.288;12.390;2023-06-10T13:43:02;8.95;;;3.42;;
31584;SDS011;18191;51.288;12.390;2023-06-10T13:47:52;11.40;;;3.63;;
31584;SDS011;18191;51.288;12.390;2023-06-10T13:52:43;7.60;;;2.73;;
31584;SDS011;18191;51.288;12.390;2023-06-10T13:57:33;3.40;;;2.90;;
31584;SDS011;18191;51.288;12.390;2023-06-10T14:02:23;6.33;;;2.83;;
31584;SDS011;18191;51.288;12.390;2023-06-10T14:07:13;5.38;;;2.35;;
31584;SDS011;18191;51.288;12.390;2023-06-10T14:12:04;6.60;;;2.70;;
31584;SDS011;18191;51.288;12.390;2023-06-10T14:16:55;3.88;;;2.50;;
31584;SDS011;18191;51.288;12.390;2023-06-10T14:21:45;5.88;;;3.10;;
31584;SDS011;18191;51.288;12.390;2023-06-10T14:26:35;6.13;;;3.60;;
31584;SDS011;18191;51.288;12.390;2023-06-10T14:31:25;3.83;;;2.10;;
31584;SDS011;18191;51.288;12.390;2023-06-10T14:36:16;10.77;;;3.00;;
31584;SDS011;18191;51.288;12.390;2023-06-10T14:41:06;5.22;;;2.83;;
31584;SDS011;18191;51.288;12.390;2023-06-10T14:45:56;4.57;;;2.83;;
31584;SDS011;18191;51.288;12.390;2023-06-10T14:50:47;5.47;;;2.73;;
31584;SDS011;18191;51.288;12.390;2023-06-10T14:55:40;4.82;;;3.28;;
31584;SDS011;18191;51.288;12.390;2023-06-10T15:00:31;4.80;;;3.30;;
31584;SDS011;18191;51.288;12.390;2023-06-10T15:05:21;9.77;;;3.83;;
31584;SDS011;18191;51.288;12.390;2023-06-10T15:10:11;10.60;;;4.47;;
31584;SDS011;18191;51.288;12.390;2023-06-10T15:15:02;7.05;;;4.03;;
31584;SDS011;18191;51.288;12.390;2023-06-10T15:19:52;23.50;;;11.85;;
31584;SDS011;18191;51.288;12.390;2023-06-10T15:24:43;8.75;;;4.95;;
31584;SDS011;18191;51.288;12.390;2023-06-10T15:29:33;19.77;;;9.02;;
31584;SDS011;18191;51.288;12.390;2023-06-10T15:34:23;14.55;;;8.25;;
31584;SDS011;18191;51.288;12.390;2023-06-10T15:39:13;9.25;;;5.20;;
31584;SDS011;18191;51.288;12.390;2023-06-10T15:44:04;7.18;;;4.60;;
31584;SDS011;18191;51.288;12.390;2023-06-10T15:48:54;7.75;;;4.85;;
31584;SDS011;18191;51.288;12.390;2023-06-10T15:53:45;8.65;;;5.28;;
31584;SDS011;18191;51.288;12.390;2023-06-10T15:58:37;41.42;;;17.73;;
31584;SDS011;18191;51.288;12.390;2023-06-10T16:03:27;10.13;;;5.50;;
31584;SDS011;18191;51.288;12.390;2023-06-10T16:08:17;14.35;;;6.03;;
31584;SDS011;18191;51.288;12.390;2023-06-10T16:13:07;35.33;;;6.33;;
31584;SDS011;18191;51.288;12.390;2023-06-10T16:17:58;14.45;;;6.10;;
31584;SDS011;18191;51.288;12.390;2023-06-10T16:22:48;9.77;;;6.17;;
31584;SDS011;18191;51.288;12.390;2023-06-10T16:27:38;14.00;;;8.07;;
31584;SDS011;18191;51.288;12.390;2023-06-10T16:32:29;16.25;;;7.28;;
31584;SDS011;18191;51.288;12.390;2023-06-10T16:37:19;12.48;;;8.20;;
31584;SDS011;18191;51.288;12.390;2023-06-10T16:42:09;15.77;;;7.25;;
31584;SDS011;18191;51.288;12.390;2023-06-10T16:46:59;12.77;;;6.05;;
31584;SDS011;18191;51.288;12.390;2023-06-10T16:51:50;11.65;;;6.30;;
31584;SDS011;18191;51.288;12.390;2023-06-10T16:56:40;10.15;;;6.35;;
31584;SDS011;18191;51.288;12.390;2023-06-10T17:01:30;10.85;;;6.95;;
31584;SDS011;18191;51.288;12.390;2023-06-10T17:06:21;20.47;;;7.43;;
31584;SDS011;18191;51.288;12.390;2023-06-10T17:11:11;23.73;;;11.90;;
31584;SDS011;18191;51.288;12.390;2023-06-10T17:16:01;13.20;;;6.93;;
31584;SDS011;18191;51.288;12.390;2023-06-10T17:20:51;14.68;;;6.22;;
31584;SDS011;18191;51.288;12.390;2023-06-10T17:25:42;15.55;;;7.05;;
31584;SDS011;18191;51.288;12.390;2023-06-10T17:30:32;16.58;;;7.15;;
31584;SDS011;18191;51.288;12.390;2023-06-10T17:35:22;12.80;;;7.82;;
31584;SDS011;18191;51.288;12.390;2023-06-10T17:40:12;13.63;;;6.70;;
31584;SDS011;18191;51.288;12.390;2023-06-10T17:45:03;14.30;;;7.80;;
31584;SDS011;18191;51.288;12.390;2023-06-10T17:49:53;18.77;;;10.68;;
31584;SDS011;18191;51.288;12.390;2023-06-10T17:54:44;9.65;;;6.47;;
31584;SDS011;18191;51.288;12.390;2023-06-10T17:59:34;14.27;;;8.57;;
31584;SDS011;18191;51.288;12.390;2023-06-10T18:04:24;17.25;;;7.25;;
31584;SDS011;18191;51.288;12.390;2023-06-10T18:14:05;12.15;;;6.28;;
31584;SDS011;18191;51.288;12.390;2023-06-10T18:23:45;26.00;;;7.33;;
31584;SDS011;18191;51.288;12.390;2023-06-10T18:33:26;10.93;;;6.00;;
31584;SDS011;18191;51.288;12.390;2023-06-10T18:38:17;14.48;;;6.32;;
31584;SDS011;18191;51.288;12.390;2023-06-10T18:43:08;15.25;;;8.38;;
31584;SDS011;18191;51.288;12.390;2023-06-10T18:47:59;20.58;;;9.40;;
31584;SDS011;18191;51.288;12.390;2023-06-10T18:52:49;26.92;;;11.95;;
31584;SDS011;18191;51.288;12.390;2023-06-10T18:57:41;16.05;;;7.93;;
31584;SDS011;18191;51.288;12.390;2023-06-10T19:02:31;14.37;;;8.87;;
31584;SDS011;18191;51.288;12.390;2023-06-10T19:07:24;17.80;;;10.43;;
31584;SDS011;18191;51.288;12.390;2023-06-10T19:12:16;20.27;;;10.57;;
31584;SDS011;18191;51.288;12.390;2023-06-10T19:17:06;22.85;;;11.27;;
31584;SDS011;18191;51.288;12.390;2023-06-10T19:21:59;16.75;;;10.25;;
31584;SDS011;18191;51.288;12.390;2023-06-10T19:26:50;23.48;;;13.18;;
31584;SDS011;18191;51.288;12.390;2023-06-10T19:31:40;19.48;;;9.23;;
31584;SDS011;18191;51.288;12.390;2023-06-10T19:36:30;16.55;;;8.38;;
31584;SDS011;18191;51.288;12.390;2023-06-10T19:41:20;18.90;;;10.57;;
31584;SDS011;18191;51.288;12.390;2023-06-10T19:46:11;16.40;;;9.45;;
31584;SDS011;18191;51.288;12.390;2023-06-10T19:51:02;18.60;;;9.55;;
31584;SDS011;18191;51.288;12.390;2023-06-10T19:55:52;16.40;;;9.50;;
31584;SDS011;18191;51.288;12.390;2023-06-10T20:00:42;31.70;;;11.73;;
31584;SDS011;18191;51.288;12.390;2023-06-10T20:05:33;35.60;;;16.90;;
31584;SDS011;18191;51.288;12.390;2023-06-10T20:10:23;47.92;;;16.10;;
31584;SDS011;18191;51.288;12.390;2023-06-10T20:15:13;18.13;;;10.43;;
31584;SDS011;18191;51.288;12.390;2023-06-10T20:20:04;23.20;;;10.65;;
31584;SDS011;18191;51.288;12.390;2023-06-10T20:24:55;19.52;;;10.82;;
31584;SDS011;18191;51.288;12.390;2023-06-10T20:29:45;23.27;;;9.90;;
31584;SDS011;18191;51.288;12.390;2023-06-10T20:34:35;20.67;;;11.02;;
31584;SDS011;18191;51.288;12.390;2023-06-10T20:39:26;22.38;;;10.55;;
31584;SDS011;18191;51.288;12.390;2023-06-10T20:44:16;19.10;;;11.25;;
31584;SDS011;18191;51.288;12.390;2023-06-10T20:49:06;20.90;;;11.43;;
31584;SDS011;18191;51.288;12.390;2023-06-10T20:53:57;29.77;;;14.98;;
31584;SDS011;18191;51.288;12.390;2023-06-10T20:58:47;39.57;;;15.37;;
31584;SDS011;18191;51.288;12.390;2023-06-10T21:03:37;41.22;;;20.60;;
31584;SDS011;18191;51.288;12.390;2023-06-10T21:08:28;50.17;;;23.20;;
31584;SDS011;18191;51.288;12.390;2023-06-10T21:13:18;44.03;;;21.73;;
31584;SDS011;18191;51.288;12.390;2023-06-10T21:18:09;41.95;;;20.63;;
31584;SDS011;18191;51.288;12.390;2023-06-10T21:22:59;38.50;;;18.58;;
31584;SDS011;18191;51.288;12.390;2023-06-10T21:27:50;42.92;;;18.77;;
31584;SDS011;18191;51.288;12.390;2023-06-10T21:32:40;40.45;;;19.23;;
31584;SDS011;18191;51.288;12.390;2023-06-10T21:37:30;39.58;;;21.52;;
31584;SDS011;18191;51.288;12.390;2023-06-10T21:42:21;48.70;;;21.67;;
31584;SDS011;18191;51.288;12.390;2023-06-10T21:47:11;47.25;;;20.98;;
31584;SDS011;18191;51.288;12.390;2023-06-10T21:52:01;34.38;;;17.95;;
31584;SDS011;18191;51.288;12.390;2023-06-10T21:56:52;30.55;;;16.00;;
31584;SDS011;18191;51.288;12.390;2023-06-10T22:01:42;28.42;;;12.13;;
31584;SDS011;18191;51.288;12.390;2023-06-10T22:06:32;22.35;;;9.70;;
31584;SDS011;18191;51.288;12.390;2023-06-10T22:11:24;19.75;;;9.68;;
31584;SDS011;18191;51.288;12.390;2023-06-10T22:16:15;20.92;;;7.47;;
31584;SDS011;18191;51.288;12.390;2023-06-10T22:21:06;15.60;;;7.93;;
31584;SDS011;18191;51.288;12.390;2023-06-10T22:25:56;14.98;;;7.22;;
31584;SDS011;18191;51.288;12.390;2023-06-10T22:30:46;11.30;;;6.68;;
31584;SDS011;18191;51.288;12.390;2023-06-10T22:35:37;12.20;;;6.55;;
31584;SDS011;18191;51.288;12.390;2023-06-10T22:40:27;14.27;;;6.70;;
31584;SDS011;18191;51.288;12.390;2023-06-10T22:45:17;17.80;;;6.50;;
31584;SDS011;18191;51.288;12.390;2023-06-10T22:50:08;11.90;;;6.57;;
31584;SDS011;18191;51.288;12.390;2023-06-10T22:54:58;19.52;;;8.52;;
31584;SDS011;18191;51.288;12.390;2023-06-10T22:59:49;23.15;;;6.35;;
31584;SDS011;18191;51.288;12.390;2023-06-10T23:04:39;10.80;;;6.25;;
31584;SDS011;18191;51.288;12.390;2023-06-10T23:09:29;12.40;;;6.38;;
31584;SDS011;18191;51.288;12.390;2023-06-10T23:14:20;19.65;;;6.90;;
31584;SDS011;18191;51.288;12.390;2023-06-10T23:19:11;15.80;;;6.85;;
31584;SDS011;18191;51.288;12.390;2023-06-10T23:24:03;13.48;;;6.63;;
31584;SDS011;18191;51.288;12.390;2023-06-10T23:28:53;12.70;;;6.25;;
31584;SDS011;18191;51.288;12.390;2023-06-10T23:33:44;14.48;;;6.22;;
31584;SDS011;18191;51.288;12.390;2023-06-10T23:38:35;11.73;;;6.00;;
31584;SDS011;18191;51.288;12.390;2023-06-10T23:43:25;15.00;;;6.35;;
31584;SDS011;18191;51.288;12.390;2023-06-10T23:48:16;15.25;;;6.25;;
31584;SDS011;18191;51.288;12.390;2023-06-10T23:53:06;13.25;;;6.32;;
31584;SDS011;18191;51.288;12.390;2023-06-10T23:57:56;33.05;;;6.35;;
